sensor_id;sensor_type;location;lat;lon;timestamp;pressure;altitude;pressure_sealevel;temperature
76713;BMP280;65640;43.154;25.658;2023-04-30T00:01:24;100432.25;;;10.93
76713;BMP280;65640;43.154;25.658;2023-04-30T00:03:49;100433.59;;;10.91
76713;BMP280;65640;43.154;25.658;2023-04-30T00:06:15;100428.38;;;10.85
76713;BMP280;65640;43.154;25.658;2023-04-30T00:08:40;100431.25;;;10.84
76713;BMP280;65640;43.154;25.658;2023-04-30T00:11:05;100433.13;;;10.78
76713;BMP280;65640;43.154;25.658;2023-04-30T00:13:31;100432.91;;;10.70
76713;BMP280;65640;43.154;25.658;2023-04-30T00:15:56;100428.50;;;10.60
76713;BMP280;65640;43.154;25.658;2023-04-30T00:18:22;100425.66;;;10.52
76713;BMP280;65640;43.154;25.658;2023-04-30T00:20:47;100429.84;;;10.53
76713;BMP280;65640;43.154;25.658;2023-04-30T00:23:13;100432.22;;;10.49
76713;BMP280;65640;43.154;25.658;2023-04-30T00:25:38;100424.88;;;10.46
76713;BMP280;65640;43.154;25.658;2023-04-30T00:28:04;100424.13;;;10.40
76713;BMP280;65640;43.154;25.658;2023-04-30T00:30:29;100417.06;;;10.36
76713;BMP280;65640;43.154;25.658;2023-04-30T00:32:54;100418.66;;;10.37
76713;BMP280;65640;43.154;25.658;2023-04-30T00:35:20;100415.50;;;10.35
76713;BMP280;65640;43.154;25.658;2023-04-30T00:37:45;100419.16;;;10.34
76713;BMP280;65640;43.154;25.658;2023-04-30T00:40:11;100413.69;;;10.30
76713;BMP280;65640;43.154;25.658;2023-04-30T00:42:37;100418.41;;;10.23
76713;BMP280;65640;43.154;25.658;2023-04-30T00:45:03;100414.50;;;10.16
76713;BMP280;65640;43.154;25.658;2023-04-30T00:47:28;100415.84;;;10.13
76713;BMP280;65640;43.154;25.658;2023-04-30T00:49:56;100410.34;;;10.15
76713;BMP280;65640;43.154;25.658;2023-04-30T00:52:22;100409.81;;;10.13
76713;BMP280;65640;43.154;25.658;2023-04-30T00:54:47;100412.44;;;10.13
76713;BMP280;65640;43.154;25.658;2023-04-30T00:57:14;100400.94;;;10.09
76713;BMP280;65640;43.154;25.658;2023-04-30T00:59:40;100400.69;;;10.00
76713;BMP280;65640;43.154;25.658;2023-04-30T01:02:06;100404.59;;;9.97
76713;BMP280;65640;43.154;25.658;2023-04-30T01:04:32;100400.44;;;9.91
76713;BMP280;65640;43.154;25.658;2023-04-30T01:06:58;100399.16;;;9.79
76713;BMP280;65640;43.154;25.658;2023-04-30T01:09:27;100405.69;;;9.71
76713;BMP280;65640;43.154;25.658;2023-04-30T01:12:20;100406.22;;;9.63
76713;BMP280;65640;43.154;25.658;2023-04-30T01:17:33;100403.59;;;9.53
76713;BMP280;65640;43.154;25.658;2023-04-30T01:20:02;100406.97;;;9.48
76713;BMP280;65640;43.154;25.658;2023-04-30T01:23:17;100400.47;;;9.41
76713;BMP280;65640;43.154;25.658;2023-04-30T01:26:13;100405.44;;;9.37
76713;BMP280;65640;43.154;25.658;2023-04-30T01:28:42;100404.91;;;9.35
76713;BMP280;65640;43.154;25.658;2023-04-30T01:31:17;100400.69;;;9.29
76713;BMP280;65640;43.154;25.658;2023-04-30T01:33:42;100398.59;;;9.26
76713;BMP280;65640;43.154;25.658;2023-04-30T01:36:34;100399.94;;;9.23
76713;BMP280;65640;43.154;25.658;2023-04-30T01:39:18;100400.44;;;9.15
76713;BMP280;65640;43.154;25.658;2023-04-30T01:41:59;100397.28;;;9.08
76713;BMP280;65640;43.154;25.658;2023-04-30T01:44:44;100396.75;;;9.06
76713;BMP280;65640;43.154;25.658;2023-04-30T01:52:55;100387.81;;;8.92
76713;BMP280;65640;43.154;25.658;2023-04-30T01:58:01;100392.75;;;8.83
76713;BMP280;65640;43.154;25.658;2023-04-30T02:00:28;100394.59;;;8.78
76713;BMP280;65640;43.154;25.658;2023-04-30T02:02:54;100397.22;;;8.78
76713;BMP280;65640;43.154;25.658;2023-04-30T02:05:20;100402.13;;;8.74
76713;BMP280;65640;43.154;25.658;2023-04-30T02:07:48;100399.53;;;8.69
76713;BMP280;65640;43.154;25.658;2023-04-30T02:10:15;100393.50;;;8.69
76713;BMP280;65640;43.154;25.658;2023-04-30T02:12:41;100385.16;;;8.67
76713;BMP280;65640;43.154;25.658;2023-04-30T02:15:07;100392.66;;;8.58
76713;BMP280;65640;43.154;25.658;2023-04-30T02:17:33;100389.00;;;8.49
76713;BMP280;65640;43.154;25.658;2023-04-30T02:19:58;100384.78;;;8.43
76713;BMP280;65640;43.154;25.658;2023-04-30T02:22:24;100391.53;;;8.39
76713;BMP280;65640;43.154;25.658;2023-04-30T02:24:49;100396.22;;;8.32
76713;BMP280;65640;43.154;25.658;2023-04-30T02:27:19;100391.75;;;8.27
76713;BMP280;65640;43.154;25.658;2023-04-30T02:29:44;100390.91;;;8.22
76713;BMP280;65640;43.154;25.658;2023-04-30T02:32:10;100399.25;;;8.19
76713;BMP280;65640;43.154;25.658;2023-04-30T02:34:36;100386.16;;;8.14
76713;BMP280;65640;43.154;25.658;2023-04-30T02:37:01;100394.19;;;8.02
76713;BMP280;65640;43.154;25.658;2023-04-30T02:39:27;100398.28;;;7.93
76713;BMP280;65640;43.154;25.658;2023-04-30T02:41:52;100396.19;;;7.85
76713;BMP280;65640;43.154;25.658;2023-04-30T02:44:18;100396.47;;;7.93
76713;BMP280;65640;43.154;25.658;2023-04-30T02:46:43;100407.19;;;7.97
76713;BMP280;65640;43.154;25.658;2023-04-30T02:49:09;100404.84;;;7.95
76713;BMP280;65640;43.154;25.658;2023-04-30T02:51:34;100399.56;;;7.90
76713;BMP280;65640;43.154;25.658;2023-04-30T02:53:59;100397.75;;;7.86
76713;BMP280;65640;43.154;25.658;2023-04-30T02:56:25;100397.75;;;7.86
76713;BMP280;65640;43.154;25.658;2023-04-30T02:58:50;100399.25;;;7.82
76713;BMP280;65640;43.154;25.658;2023-04-30T03:01:16;100411.25;;;7.83
76713;BMP280;65640;43.154;25.658;2023-04-30T03:03:41;100409.44;;;7.83
76713;BMP280;65640;43.154;25.658;2023-04-30T03:06:06;100406.53;;;7.80
76713;BMP280;65640;43.154;25.658;2023-04-30T03:08:32;100411.75;;;7.80
76713;BMP280;65640;43.154;25.658;2023-04-30T03:10:57;100415.91;;;7.76
76713;BMP280;65640;43.154;25.658;2023-04-30T03:13:23;100414.00;;;7.71
76713;BMP280;65640;43.154;25.658;2023-04-30T03:16:01;100401.47;;;7.68
76713;BMP280;65640;43.154;25.658;2023-04-30T03:18:28;100407.47;;;7.68
76713;BMP280;65640;43.154;25.658;2023-04-30T03:20:54;100408.50;;;7.67
76713;BMP280;65640;43.154;25.658;2023-04-30T03:23:20;100408.50;;;7.67
76713;BMP280;65640;43.154;25.658;2023-04-30T03:25:46;100411.41;;;7.71
76713;BMP280;65640;43.154;25.658;2023-04-30T03:28:11;100412.97;;;7.67
76713;BMP280;65640;43.154;25.658;2023-04-30T03:30:37;100413.47;;;7.64
76713;BMP280;65640;43.154;25.658;2023-04-30T03:33:02;100417.59;;;7.60
76713;BMP280;65640;43.154;25.658;2023-04-30T03:35:31;100423.03;;;7.58
76713;BMP280;65640;43.154;25.658;2023-04-30T03:37:56;100424.38;;;7.61
76713;BMP280;65640;43.154;25.658;2023-04-30T03:40:22;100425.16;;;7.61
76713;BMP280;65640;43.154;25.658;2023-04-30T03:42:47;100430.06;;;7.58
76713;BMP280;65640;43.154;25.658;2023-04-30T03:45:12;100436.53;;;7.55
76713;BMP280;65640;43.154;25.658;2023-04-30T03:47:38;100428.13;;;7.43
76713;BMP280;65640;43.154;25.658;2023-04-30T03:50:03;100433.59;;;7.47
76713;BMP280;65640;43.154;25.658;2023-04-30T03:52:29;100438.13;;;7.56
76713;BMP280;65640;43.154;25.658;2023-04-30T03:54:56;100439.22;;;7.60
76713;BMP280;65640;43.154;25.658;2023-04-30T03:57:21;100445.75;;;7.68
76713;BMP280;65640;43.154;25.658;2023-04-30T03:59:47;100444.81;;;7.74
76713;BMP280;65640;43.154;25.658;2023-04-30T04:02:13;100443.03;;;7.80
76713;BMP280;65640;43.154;25.658;2023-04-30T04:04:38;100445.38;;;7.81
76713;BMP280;65640;43.154;25.658;2023-04-30T04:07:04;100452.47;;;7.86
76713;BMP280;65640;43.154;25.658;2023-04-30T04:09:32;100451.94;;;7.84
76713;BMP280;65640;43.154;25.658;2023-04-30T04:23:30;100457.44;;;8.24
76713;BMP280;65640;43.154;25.658;2023-04-30T04:25:56;100465.75;;;8.21
76713;BMP280;65640;43.154;25.658;2023-04-30T04:28:21;100460.59;;;8.26
76713;BMP280;65640;43.154;25.658;2023-04-30T04:30:47;100457.13;;;8.21
76713;BMP280;65640;43.154;25.658;2023-04-30T04:33:13;100461.84;;;8.19
76713;BMP280;65640;43.154;25.658;2023-04-30T04:35:39;100465.00;;;8.26
76713;BMP280;65640;43.154;25.658;2023-04-30T04:38:04;100463.19;;;8.26
76713;BMP280;65640;43.154;25.658;2023-04-30T04:40:30;100469.75;;;8.29
76713;BMP280;65640;43.154;25.658;2023-04-30T04:42:55;100469.50;;;8.30
76713;BMP280;65640;43.154;25.658;2023-04-30T04:45:21;100467.69;;;8.31
76713;BMP280;65640;43.154;25.658;2023-04-30T04:47:47;100472.09;;;8.35
76713;BMP280;65640;43.154;25.658;2023-04-30T04:50:12;100469.78;;;8.34
76713;BMP280;65640;43.154;25.658;2023-04-30T04:52:38;100467.16;;;8.34
76713;BMP280;65640;43.154;25.658;2023-04-30T04:55:04;100468.97;;;8.33
76713;BMP280;65640;43.154;25.658;2023-04-30T04:57:30;100468.47;;;8.36
76713;BMP280;65640;43.154;25.658;2023-04-30T04:59:55;100465.63;;;8.43
76713;BMP280;65640;43.154;25.658;2023-04-30T05:02:21;100457.31;;;8.46
76713;BMP280;65640;43.154;25.658;2023-04-30T05:04:48;100456.03;;;8.49
76713;BMP280;65640;43.154;25.658;2023-04-30T05:07:15;100450.06;;;8.53
76713;BMP280;65640;43.154;25.658;2023-04-30T05:09:41;100456.63;;;8.61
76713;BMP280;65640;43.154;25.658;2023-04-30T05:12:06;100461.84;;;8.66
76713;BMP280;65640;43.154;25.658;2023-04-30T05:14:32;100460.56;;;8.68
76713;BMP280;65640;43.154;25.658;2023-04-30T05:16:57;100466.84;;;8.72
76713;BMP280;65640;43.154;25.658;2023-04-30T05:19:23;100472.66;;;8.79
76713;BMP280;65640;43.154;25.658;2023-04-30T05:21:48;100472.09;;;8.82
76713;BMP280;65640;43.154;25.658;2023-04-30T05:24:14;100482.81;;;8.86
76713;BMP280;65640;43.154;25.658;2023-04-30T05:26:39;100484.69;;;8.91
76713;BMP280;65640;43.154;25.658;2023-04-30T05:29:04;100486.56;;;9.05
76713;BMP280;65640;43.154;25.658;2023-04-30T05:31:30;100480.44;;;9.47
76713;BMP280;65640;43.154;25.658;2023-04-30T05:33:56;100483.59;;;9.84
76713;BMP280;65640;43.154;25.658;2023-04-30T05:36:22;100479.41;;;9.98
76713;BMP280;65640;43.154;25.658;2023-04-30T05:38:47;100478.84;;;10.32
76713;BMP280;65640;43.154;25.658;2023-04-30T05:41:13;100475.84;;;10.74
76713;BMP280;65640;43.154;25.658;2023-04-30T05:43:38;100473.81;;;11.10
76713;BMP280;65640;43.154;25.658;2023-04-30T05:46:03;100477.31;;;11.44
76713;BMP280;65640;43.154;25.658;2023-04-30T05:48:29;100472.41;;;11.66
76713;BMP280;65640;43.154;25.658;2023-04-30T05:50:55;100468.09;;;11.81
76713;BMP280;65640;43.154;25.658;2023-04-30T05:53:20;100469.34;;;11.83
76713;BMP280;65640;43.154;25.658;2023-04-30T05:55:46;100466.84;;;11.73
76713;BMP280;65640;43.154;25.658;2023-04-30T05:58:11;100471.72;;;11.85
76713;BMP280;65640;43.154;25.658;2023-04-30T06:00:36;100463.69;;;12.00
76713;BMP280;65640;43.154;25.658;2023-04-30T06:03:03;100466.38;;;12.42
76713;BMP280;65640;43.154;25.658;2023-04-30T06:05:28;100471.69;;;12.80
76713;BMP280;65640;43.154;25.658;2023-04-30T06:07:54;100462.34;;;13.11
76713;BMP280;65640;43.154;25.658;2023-04-30T06:10:19;100474.97;;;13.28
76713;BMP280;65640;43.154;25.658;2023-04-30T06:12:45;100476.59;;;13.42
76713;BMP280;65640;43.154;25.658;2023-04-30T06:15:10;100466.94;;;13.38
76713;BMP280;65640;43.154;25.658;2023-04-30T06:17:36;100467.28;;;13.50
76713;BMP280;65640;43.154;25.658;2023-04-30T06:20:01;100471.69;;;13.68
76713;BMP280;65640;43.154;25.658;2023-04-30T06:22:31;100468.84;;;13.65
76713;BMP280;65640;43.154;25.658;2023-04-30T06:24:56;100466.28;;;13.60
76713;BMP280;65640;43.154;25.658;2023-04-30T06:27:22;100475.19;;;13.77
76713;BMP280;65640;43.154;25.658;2023-04-30T06:29:48;100469.97;;;13.91
76713;BMP280;65640;43.154;25.658;2023-04-30T06:32:13;100466.88;;;14.16
76713;BMP280;65640;43.154;25.658;2023-04-30T06:34:38;100477.41;;;14.30
76713;BMP280;65640;43.154;25.658;2023-04-30T06:37:04;100469.91;;;14.37
76713;BMP280;65640;43.154;25.658;2023-04-30T06:39:30;100469.00;;;14.42
76713;BMP280;65640;43.154;25.658;2023-04-30T06:41:55;100468.59;;;14.48
76713;BMP280;65640;43.154;25.658;2023-04-30T06:44:20;100469.53;;;14.66
76713;BMP280;65640;43.154;25.658;2023-04-30T06:46:46;100470.63;;;14.65
76713;BMP280;65640;43.154;25.658;2023-04-30T06:49:11;100465.47;;;14.60
76713;BMP280;65640;43.154;25.658;2023-04-30T06:51:37;100476.16;;;14.77
76713;BMP280;65640;43.154;25.658;2023-04-30T06:54:02;100473.66;;;14.94
76713;BMP280;65640;43.154;25.658;2023-04-30T06:56:27;100466.34;;;15.13
76713;BMP280;65640;43.154;25.658;2023-04-30T06:58:53;100475.47;;;15.30
76713;BMP280;65640;43.154;25.658;2023-04-30T07:01:18;100475.47;;;15.60
76713;BMP280;65640;43.154;25.658;2023-04-30T07:03:44;100474.38;;;15.92
76713;BMP280;65640;43.154;25.658;2023-04-30T07:06:10;100479.13;;;16.21
76713;BMP280;65640;43.154;25.658;2023-04-30T07:08:35;100473.56;;;16.48
76713;BMP280;65640;43.154;25.658;2023-04-30T07:11:00;100483.69;;;16.72
76713;BMP280;65640;43.154;25.658;2023-04-30T07:13:26;100480.09;;;17.02
76713;BMP280;65640;43.154;25.658;2023-04-30T07:15:51;100468.22;;;17.34
76713;BMP280;65640;43.154;25.658;2023-04-30T07:18:17;100467.53;;;17.55
76713;BMP280;65640;43.154;25.658;2023-04-30T07:20:42;100469.41;;;17.54
76713;BMP280;65640;43.154;25.658;2023-04-30T07:23:08;100474.22;;;17.52
76713;BMP280;65640;43.154;25.658;2023-04-30T07:25:34;100471.88;;;17.50
76713;BMP280;65640;43.154;25.658;2023-04-30T07:27:59;100468.22;;;17.72
76713;BMP280;65640;43.154;25.658;2023-04-30T07:30:25;100469.59;;;18.08
76713;BMP280;65640;43.154;25.658;2023-04-30T07:32:50;100461.72;;;18.20
76713;BMP280;65640;43.154;25.658;2023-04-30T07:35:16;100464.69;;;18.39
76713;BMP280;65640;43.154;25.658;2023-04-30T07:37:41;100461.75;;;18.40
76713;BMP280;65640;43.154;25.658;2023-04-30T07:40:08;100453.75;;;18.61
76713;BMP280;65640;43.154;25.658;2023-04-30T07:42:40;100455.53;;;19.02
76713;BMP280;65640;43.154;25.658;2023-04-30T07:45:06;100455.56;;;19.38
76713;BMP280;65640;43.154;25.658;2023-04-30T07:47:32;100453.50;;;19.56
76713;BMP280;65640;43.154;25.658;2023-04-30T07:49:57;100452.84;;;19.59
76713;BMP280;65640;43.154;25.658;2023-04-30T07:52:23;100453.38;;;19.77
76713;BMP280;65640;43.154;25.658;2023-04-30T07:54:48;100448.38;;;19.87
76713;BMP280;65640;43.154;25.658;2023-04-30T07:57:14;100455.81;;;19.70
76713;BMP280;65640;43.154;25.658;2023-04-30T07:59:39;100454.41;;;19.60
76713;BMP280;65640;43.154;25.658;2023-04-30T08:02:06;100454.03;;;19.74
76713;BMP280;65640;43.154;25.658;2023-04-30T08:04:31;100442.09;;;19.80
76713;BMP280;65640;43.154;25.658;2023-04-30T08:06:57;100440.69;;;19.58
76713;BMP280;65640;43.154;25.658;2023-04-30T08:09:22;100451.69;;;19.24
76713;BMP280;65640;43.154;25.658;2023-04-30T08:11:48;100439.66;;;19.51
76713;BMP280;65640;43.154;25.658;2023-04-30T08:14:13;100451.72;;;19.72
76713;BMP280;65640;43.154;25.658;2023-04-30T08:16:39;100449.16;;;19.88
76713;BMP280;65640;43.154;25.658;2023-04-30T08:19:04;100451.78;;;20.00
76713;BMP280;65640;43.154;25.658;2023-04-30T08:21:29;100446.38;;;19.84
76713;BMP280;65640;43.154;25.658;2023-04-30T08:23:55;100451.84;;;19.76
76713;BMP280;65640;43.154;25.658;2023-04-30T08:26:21;100450.41;;;19.54
76713;BMP280;65640;43.154;25.658;2023-04-30T08:28:47;100446.22;;;19.53
76713;BMP280;65640;43.154;25.658;2023-04-30T08:31:13;100448.63;;;19.82
76713;BMP280;65640;43.154;25.658;2023-04-30T08:33:38;100449.75;;;20.09
76713;BMP280;65640;43.154;25.658;2023-04-30T08:36:05;100448.16;;;19.80
76713;BMP280;65640;43.154;25.658;2023-04-30T08:38:30;100436.88;;;19.83
76713;BMP280;65640;43.154;25.658;2023-04-30T08:41:05;100445.09;;;19.78
76713;BMP280;65640;43.154;25.658;2023-04-30T08:43:33;100446.59;;;19.91
76713;BMP280;65640;43.154;25.658;2023-04-30T08:45:59;100438.78;;;20.23
76713;BMP280;65640;43.154;25.658;2023-04-30T08:48:26;100436.34;;;20.46
76713;BMP280;65640;43.154;25.658;2023-04-30T08:50:52;100442.06;;;20.75
76713;BMP280;65640;43.154;25.658;2023-04-30T08:53:18;100440.78;;;20.69
76713;BMP280;65640;43.154;25.658;2023-04-30T08:55:46;100440.94;;;20.76
76713;BMP280;65640;43.154;25.658;2023-04-30T08:58:11;100434.69;;;21.00
76713;BMP280;65640;43.154;25.658;2023-04-30T09:00:37;100434.72;;;20.84
76713;BMP280;65640;43.154;25.658;2023-04-30T09:03:04;100429.06;;;20.58
76713;BMP280;65640;43.154;25.658;2023-04-30T09:05:30;100423.94;;;20.65
76713;BMP280;65640;43.154;25.658;2023-04-30T09:07:55;100423.69;;;20.86
76713;BMP280;65640;43.154;25.658;2023-04-30T09:10:21;100425.84;;;20.65
76713;BMP280;65640;43.154;25.658;2023-04-30T09:12:59;100419.22;;;20.31
76713;BMP280;65640;43.154;25.658;2023-04-30T09:15:26;100417.97;;;20.13
76713;BMP280;65640;43.154;25.658;2023-04-30T09:18:14;100412.25;;;20.54
76713;BMP280;65640;43.154;25.658;2023-04-30T09:20:55;100409.03;;;21.08
76713;BMP280;65640;43.154;25.658;2023-04-30T09:23:22;100410.03;;;21.03
76713;BMP280;65640;43.154;25.658;2023-04-30T09:25:47;100399.38;;;21.19
76713;BMP280;65640;43.154;25.658;2023-04-30T09:28:13;100405.91;;;21.37
76713;BMP280;65640;43.154;25.658;2023-04-30T09:30:40;100400.00;;;21.47
76713;BMP280;65640;43.154;25.658;2023-04-30T09:33:06;100397.31;;;21.63
76713;BMP280;65640;43.154;25.658;2023-04-30T09:35:33;100396.66;;;21.85
76713;BMP280;65640;43.154;25.658;2023-04-30T09:38:00;100396.94;;;21.64
76713;BMP280;65640;43.154;25.658;2023-04-30T09:40:37;100393.47;;;21.60
76713;BMP280;65640;43.154;25.658;2023-04-30T09:43:04;100379.59;;;21.89
76713;BMP280;65640;43.154;25.658;2023-04-30T09:45:43;100388.16;;;21.79
76713;BMP280;65640;43.154;25.658;2023-04-30T09:48:11;100385.06;;;21.08
76713;BMP280;65640;43.154;25.658;2023-04-30T09:50:40;100379.72;;;21.08
76713;BMP280;65640;43.154;25.658;2023-04-30T09:53:12;100382.31;;;21.04
76713;BMP280;65640;43.154;25.658;2023-04-30T09:55:41;100378.53;;;21.05
76713;BMP280;65640;43.154;25.658;2023-04-30T09:58:09;100378.69;;;21.47
76713;BMP280;65640;43.154;25.658;2023-04-30T10:00:35;100375.66;;;21.83
76713;BMP280;65640;43.154;25.658;2023-04-30T10:03:08;100370.75;;;21.66
76713;BMP280;65640;43.154;25.658;2023-04-30T10:05:41;100374.59;;;21.88
76713;BMP280;65640;43.154;25.658;2023-04-30T10:08:40;100375.72;;;21.68
76713;BMP280;65640;43.154;25.658;2023-04-30T10:11:07;100369.84;;;21.43
76713;BMP280;65640;43.154;25.658;2023-04-30T10:16:42;100364.81;;;22.15
76713;BMP280;65640;43.154;25.658;2023-04-30T10:19:19;100358.72;;;21.95
76713;BMP280;65640;43.154;25.658;2023-04-30T10:21:46;100369.91;;;21.62
76713;BMP280;65640;43.154;25.658;2023-04-30T10:24:14;100366.28;;;21.35
76713;BMP280;65640;43.154;25.658;2023-04-30T10:26:42;100373.34;;;21.82
76713;BMP280;65640;43.154;25.658;2023-04-30T10:29:08;100362.88;;;22.34
76713;BMP280;65640;43.154;25.658;2023-04-30T10:31:34;100361.88;;;22.42
76713;BMP280;65640;43.154;25.658;2023-04-30T10:34:13;100359.41;;;22.53
76713;BMP280;65640;43.154;25.658;2023-04-30T10:36:42;100352.31;;;22.64
76713;BMP280;65640;43.154;25.658;2023-04-30T10:39:10;100353.47;;;22.63
76713;BMP280;65640;43.154;25.658;2023-04-30T10:41:37;100358.63;;;22.53
76713;BMP280;65640;43.154;25.658;2023-04-30T10:44:02;100347.03;;;22.45
76713;BMP280;65640;43.154;25.658;2023-04-30T10:46:29;100355.03;;;22.68
76713;BMP280;65640;43.154;25.658;2023-04-30T10:48:55;100341.53;;;22.83
76713;BMP280;65640;43.154;25.658;2023-04-30T10:51:21;100337.25;;;22.75
76713;BMP280;65640;43.154;25.658;2023-04-30T10:53:50;100334.59;;;23.05
76713;BMP280;65640;43.154;25.658;2023-04-30T10:56:30;100333.81;;;23.05
76713;BMP280;65640;43.154;25.658;2023-04-30T10:59:00;100334.66;;;23.09
76713;BMP280;65640;43.154;25.658;2023-04-30T11:01:27;100334.72;;;23.45
76713;BMP280;65640;43.154;25.658;2023-04-30T11:04:06;100329.41;;;23.49
76713;BMP280;65640;43.154;25.658;2023-04-30T11:09:33;100335.19;;;23.18
76713;BMP280;65640;43.154;25.658;2023-04-30T11:12:01;100337.63;;;23.30
76713;BMP280;65640;43.154;25.658;2023-04-30T11:14:31;100339.91;;;23.31
76713;BMP280;65640;43.154;25.658;2023-04-30T11:16:58;100337.50;;;23.19
76713;BMP280;65640;43.154;25.658;2023-04-30T11:19:26;100336.31;;;22.90
76713;BMP280;65640;43.154;25.658;2023-04-30T11:24:50;100326.13;;;22.99
76713;BMP280;65640;43.154;25.658;2023-04-30T11:27:24;100320.69;;;23.52
76713;BMP280;65640;43.154;25.658;2023-04-30T11:29:50;100322.66;;;23.55
76713;BMP280;65640;43.154;25.658;2023-04-30T11:32:21;100316.88;;;23.20
76713;BMP280;65640;43.154;25.658;2023-04-30T11:34:47;100321.19;;;22.49
76713;BMP280;65640;43.154;25.658;2023-04-30T11:37:17;100318.00;;;22.40
76713;BMP280;65640;43.154;25.658;2023-04-30T11:39:43;100315.78;;;22.68
76713;BMP280;65640;43.154;25.658;2023-04-30T11:42:08;100310.16;;;22.73
76713;BMP280;65640;43.154;25.658;2023-04-30T11:44:34;100309.41;;;22.76
76713;BMP280;65640;43.154;25.658;2023-04-30T11:47:00;100308.47;;;23.18
76713;BMP280;65640;43.154;25.658;2023-04-30T11:49:26;100311.44;;;23.13
76713;BMP280;65640;43.154;25.658;2023-04-30T11:51:51;100305.31;;;23.12
76713;BMP280;65640;43.154;25.658;2023-04-30T11:54:17;100313.72;;;23.11
76713;BMP280;65640;43.154;25.658;2023-04-30T11:56:47;100306.56;;;23.18
76713;BMP280;65640;43.154;25.658;2023-04-30T11:59:13;100304.06;;;23.32
76713;BMP280;65640;43.154;25.658;2023-04-30T12:01:39;100302.00;;;23.22
76713;BMP280;65640;43.154;25.658;2023-04-30T12:04:05;100304.06;;;23.32
76713;BMP280;65640;43.154;25.658;2023-04-30T12:06:31;100309.78;;;23.05
76713;BMP280;65640;43.154;25.658;2023-04-30T12:08:58;100301.03;;;23.34
76713;BMP280;65640;43.154;25.658;2023-04-30T12:11:34;100295.16;;;23.25
76713;BMP280;65640;43.154;25.658;2023-04-30T12:14:02;100293.22;;;23.22
76713;BMP280;65640;43.154;25.658;2023-04-30T12:16:46;100289.34;;;23.16
76713;BMP280;65640;43.154;25.658;2023-04-30T12:19:15;100283.81;;;23.68
76713;BMP280;65640;43.154;25.658;2023-04-30T12:21:42;100282.84;;;23.83
76713;BMP280;65640;43.154;25.658;2023-04-30T12:24:15;100277.06;;;23.78
76713;BMP280;65640;43.154;25.658;2023-04-30T12:26:42;100284.44;;;23.54
76713;BMP280;65640;43.154;25.658;2023-04-30T12:29:08;100279.06;;;23.51
76713;BMP280;65640;43.154;25.658;2023-04-30T12:31:36;100270.31;;;23.94
76713;BMP280;65640;43.154;25.658;2023-04-30T12:34:08;100268.78;;;23.93
76713;BMP280;65640;43.154;25.658;2023-04-30T12:36:34;100266.13;;;23.97
76713;BMP280;65640;43.154;25.658;2023-04-30T12:39:08;100269.66;;;24.04
76713;BMP280;65640;43.154;25.658;2023-04-30T12:41:39;100279.16;;;23.58
76713;BMP280;65640;43.154;25.658;2023-04-30T12:46:47;100262.94;;;23.44
76713;BMP280;65640;43.154;25.658;2023-04-30T12:49:32;100274.53;;;23.22
76713;BMP280;65640;43.154;25.658;2023-04-30T12:52:02;100265.88;;;23.32
76713;BMP280;65640;43.154;25.658;2023-04-30T12:54:29;100258.97;;;23.64
76713;BMP280;65640;43.154;25.658;2023-04-30T12:57:00;100253.00;;;23.41
76713;BMP280;65640;43.154;25.658;2023-04-30T12:59:30;100262.38;;;22.94
76713;BMP280;65640;43.154;25.658;2023-04-30T13:04:32;100251.41;;;22.73
76713;BMP280;65640;43.154;25.658;2023-04-30T13:06:58;100245.28;;;23.02
76713;BMP280;65640;43.154;25.658;2023-04-30T13:09:23;100243.75;;;23.35
76713;BMP280;65640;43.154;25.658;2023-04-30T13:11:48;100239.22;;;23.06
76713;BMP280;65640;43.154;25.658;2023-04-30T13:14:15;100238.66;;;22.89
76713;BMP280;65640;43.154;25.658;2023-04-30T13:16:42;100244.75;;;23.20
76713;BMP280;65640;43.154;25.658;2023-04-30T13:19:08;100234.78;;;23.53
76713;BMP280;65640;43.154;25.658;2023-04-30T13:21:33;100233.34;;;23.60
76713;BMP280;65640;43.154;25.658;2023-04-30T13:23:58;100240.28;;;23.71
76713;BMP280;65640;43.154;25.658;2023-04-30T13:26:24;100230.44;;;23.79
76713;BMP280;65640;43.154;25.658;2023-04-30T13:28:50;100228.75;;;24.04
76713;BMP280;65640;43.154;25.658;2023-04-30T13:31:16;100226.06;;;24.04
76713;BMP280;65640;43.154;25.658;2023-04-30T13:33:41;100232.09;;;23.94
76713;BMP280;65640;43.154;25.658;2023-04-30T13:36:06;100228.16;;;23.77
76713;BMP280;65640;43.154;25.658;2023-04-30T13:38:32;100228.84;;;23.74
76713;BMP280;65640;43.154;25.658;2023-04-30T13:40:57;100223.78;;;24.02
76713;BMP280;65640;43.154;25.658;2023-04-30T13:43:23;100217.72;;;24.13
76713;BMP280;65640;43.154;25.658;2023-04-30T13:45:49;100225.25;;;24.00
76713;BMP280;65640;43.154;25.658;2023-04-30T13:48:14;100222.91;;;23.91
76713;BMP280;65640;43.154;25.658;2023-04-30T13:50:40;100222.16;;;23.94
76713;BMP280;65640;43.154;25.658;2023-04-30T13:53:05;100222.09;;;23.84
76713;BMP280;65640;43.154;25.658;2023-04-30T13:55:30;100227.31;;;23.70
76713;BMP280;65640;43.154;25.658;2023-04-30T13:57:56;100213.72;;;23.92
76713;BMP280;65640;43.154;25.658;2023-04-30T14:00:22;100218.47;;;24.10
76713;BMP280;65640;43.154;25.658;2023-04-30T14:02:47;100216.91;;;24.05
76713;BMP280;65640;43.154;25.658;2023-04-30T14:05:13;100221.47;;;24.01
76713;BMP280;65640;43.154;25.658;2023-04-30T14:07:40;100216.47;;;23.99
76713;BMP280;65640;43.154;25.658;2023-04-30T14:10:06;100216.81;;;23.50
76713;BMP280;65640;43.154;25.658;2023-04-30T14:12:31;100220.13;;;23.04
76713;BMP280;65640;43.154;25.658;2023-04-30T14:14:57;100228.53;;;23.06
76713;BMP280;65640;43.154;25.658;2023-04-30T14:17:23;100226.59;;;23.02
76713;BMP280;65640;43.154;25.658;2023-04-30T14:19:51;100222.53;;;23.16
76713;BMP280;65640;43.154;25.658;2023-04-30T14:22:16;100217.84;;;23.39
76713;BMP280;65640;43.154;25.658;2023-04-30T14:24:41;100228.78;;;23.64
76713;BMP280;65640;43.154;25.658;2023-04-30T14:27:07;100211.78;;;23.42